Temp: 10.2°C   Baro: 1019.8mb
  Wind: 0.9mph   Dir: SSW (196°)
  Rain: 0.0mm (0.0mm/hr)
  Solar: 0W/m2  Hum: 89%
 
Bath Spa Weather Station Historical Data
Daily Summary for August 02, 2020 Units:  Both    English   Metric
Daily Weekly Monthly Yearly Custom
  High: Low: Average:
Temperature: 69.9 °F /  21.1 °C 54.9 °F /  12.7 °C 60.9 °F /  16.1 °C
Dew Point: 57.4 °F /  14.1 °C 49.4 °F /  9.7 °C 53.1 °F /  11.7 °C
Humidity: 89% 59% 76%
Wind Speed: 12.2mph /  19.6km/h - 4.1mph /  6.6km/h
Wind Gust: 18mph /  29km/h - -
Wind- - West
Pressure: 30.06 in /  1017.8 hPa 30.00 in /  1015.8 hPa -
Precipitation: 0.00 in /  0 mm    
Historical Graphs
 
 
Tabular Data for August 02, 2020
Time Temperature Dew Point Pressure Wind Wind Speed Wind Gust Humidity Rainfall Rate (Hourly) solar
00:04 56.1 °F /  13.4 °C 49.5 °F /  9.7 °C 30.04in /  1017.2hPa Calm   3mph /  4.8km/h 78.6% 0.00in /  0mm 0 W/m2
00:09 55.9 °F /  13.3 °C 49.5 °F /  9.7 °C 30.04in /  1017.2hPa Calm     79% 0.00in /  0mm 0 W/m2
00:14 55.9 °F /  13.3 °C 49.4 °F /  9.7 °C 30.04in /  1017.2hPa Calm     79% 0.00in /  0mm 0 W/m2
00:19 55.8 °F /  13.2 °C 49.5 °F /  9.7 °C 30.04in /  1017.2hPa Calm     79.5% 0.00in /  0mm 0 W/m2
00:24 55.7 °F /  13.2 °C 49.5 °F /  9.7 °C 30.04in /  1017.2hPa Calm     80% 0.00in /  0mm 0 W/m2
00:29 55.6 °F /  13.1 °C 49.5 °F /  9.7 °C 30.04in /  1017.2hPa Calm     80% 0.00in /  0mm 0 W/m2
00:34 55.6 °F /  13.1 °C 49.5 °F /  9.7 °C 30.04in /  1017.2hPa Calm     80% 0.00in /  0mm 0 W/m2
00:39 55.6 °F /  13.1 °C 49.7 °F /  9.8 °C 30.04in /  1017.2hPa Calm     80.6% 0.00in /  0mm 0 W/m2
00:44 55.5 °F /  13.1 °C 49.7 °F /  9.8 °C 30.04in /  1017.2hPa Calm     81% 0.00in /  0mm 0 W/m2
00:49 55.4 °F /  13 °C 49.6 °F /  9.8 °C 30.04in /  1017.2hPa Calm     81% 0.00in /  0mm 0 W/m2
00:54 55.3 °F /  12.9 °C 49.7 °F /  9.8 °C 30.04in /  1017.2hPa Calm     81.5% 0.00in /  0mm 0 W/m2
00:59 55.2 °F /  12.9 °C 49.8 °F /  9.9 °C 30.04in /  1017.2hPa Calm     82% 0.00in /  0mm 0 W/m2
01:04 55.2 °F /  12.9 °C 49.8 °F /  9.9 °C 30.04in /  1017.2hPa Calm     82% 0.00in /  0mm 0 W/m2
01:09 55.2 °F /  12.9 °C 49.8 °F /  9.9 °C 30.04in /  1017.2hPa WNW 1.6mph /  2.6km/h 3mph /  4.8km/h 82% 0.00in /  0mm 0 W/m2
01:14 55.2 °F /  12.9 °C 49.8 °F /  9.9 °C 30.04in /  1017.2hPa WNW 2mph /  3.2km/h 3mph /  4.8km/h 82% 0.00in /  0mm 0 W/m2
01:19 55.2 °F /  12.9 °C 50.2 °F /  10.1 °C 30.04in /  1017.2hPa WNW 2.2mph /  3.5km/h 4mph /  6.4km/h 83% 0.00in /  0mm 0 W/m2
01:24 55.2 °F /  12.9 °C 50.2 °F /  10.1 °C 30.04in /  1017.2hPa WNW 3.1mph /  5km/h 5mph /  8km/h 83% 0.00in /  0mm 0 W/m2
01:29 55.3 °F /  12.9 °C 50.3 °F /  10.2 °C 30.04in /  1017.2hPa WNW 2.6mph /  4.2km/h 5mph /  8km/h 83% 0.00in /  0mm 0 W/m2
01:34 55.2 °F /  12.9 °C 50.4 °F /  10.2 °C 30.04in /  1017.2hPa WNW 1.4mph /  2.3km/h 4mph /  6.4km/h 83.6% 0.00in /  0mm 0 W/m2
01:39 55.2 °F /  12.9 °C 50.5 °F /  10.3 °C 30.03in /  1016.8hPa WNW 2.1mph /  3.4km/h 5mph /  8km/h 84% 0.00in /  0mm 0 W/m2
01:44 55.2 °F /  12.9 °C 50.5 °F /  10.3 °C 30.03in /  1016.8hPa WNW 1.6mph /  2.6km/h 6mph /  9.7km/h 84% 0.00in /  0mm 0 W/m2
01:49 55.1 °F /  12.8 °C 50.5 °F /  10.3 °C 30.03in /  1016.8hPa WNW 1.3mph /  2.1km/h 3mph /  4.8km/h 84.4% 0.00in /  0mm 0 W/m2
01:54 55.1 °F /  12.8 °C 50.6 °F /  10.3 °C 30.03in /  1016.8hPa WNW 2.2mph /  3.5km/h 4mph /  6.4km/h 85% 0.00in /  0mm 0 W/m2
01:59 55.1 °F /  12.8 °C 50.6 °F /  10.3 °C 30.03in /  1016.8hPa WNW 2.4mph /  3.9km/h 4mph /  6.4km/h 85% 0.00in /  0mm 0 W/m2
02:04 55 °F /  12.8 °C 50.5 °F /  10.3 °C 30.03in /  1016.8hPa WNW 2.3mph /  3.7km/h 5mph /  8km/h 85% 0.00in /  0mm 0 W/m2
02:09 55 °F /  12.8 °C 50.5 °F /  10.3 °C 30.03in /  1016.8hPa WNW 2.9mph /  4.7km/h 5mph /  8km/h 85% 0.00in /  0mm 0 W/m2
02:14 55.2 °F /  12.9 °C 50.7 °F /  10.4 °C 30.03in /  1016.8hPa WNW 3.3mph /  5.3km/h 5mph /  8km/h 85% 0.00in /  0mm 0 W/m2
02:19 55.2 °F /  12.9 °C 50.9 °F /  10.5 °C 30.03in /  1016.8hPa WNW 2.7mph /  4.3km/h 5mph /  8km/h 85.4% 0.00in /  0mm 0 W/m2
02:24 55.1 °F /  12.8 °C 51 °F /  10.6 °C 30.03in /  1016.8hPa WNW 3.3mph /  5.3km/h 5mph /  8km/h 86% 0.00in /  0mm 0 W/m2
02:29 55 °F /  12.8 °C 50.9 °F /  10.5 °C 30.03in /  1016.8hPa WNW 2.5mph /  4km/h 4mph /  6.4km/h 86% 0.00in /  0mm 0 W/m2
02:34 54.9 °F /  12.7 °C 50.7 °F /  10.4 °C 30.03in /  1016.8hPa WNW 2.2mph /  3.5km/h 5mph /  8km/h 86% 0.00in /  0mm 0 W/m2
02:39 54.9 °F /  12.7 °C 50.7 °F /  10.4 °C 30.03in /  1016.8hPa WNW 2mph /  3.2km/h 4mph /  6.4km/h 86% 0.00in /  0mm 0 W/m2
02:44 54.9 °F /  12.7 °C 50.8 °F /  10.4 °C 30.03in /  1016.8hPa WNW 2.8mph /  4.5km/h 5mph /  8km/h 86% 0.00in /  0mm 0 W/m2
02:49 55 °F /  12.8 °C 50.9 °F /  10.5 °C 30.03in /  1016.8hPa WNW 2.4mph /  3.9km/h 4mph /  6.4km/h 86% 0.00in /  0mm 0 W/m2
02:54 55 °F /  12.8 °C 50.9 °F /  10.5 °C 30.03in /  1016.8hPa WNW 2.1mph /  3.4km/h 4mph /  6.4km/h 86% 0.00in /  0mm 0 W/m2
02:59 55.2 °F /  12.9 °C 51.1 °F /  10.6 °C 30.03in /  1016.8hPa WNW 2mph /  3.2km/h 4mph /  6.4km/h 86% 0.00in /  0mm 0 W/m2
03:04 55.2 °F /  12.9 °C 51.1 °F /  10.6 °C 30.03in /  1016.8hPa WNW 1mph /  1.6km/h 3mph /  4.8km/h 86% 0.00in /  0mm 0 W/m2
03:09 55.2 °F /  12.9 °C 51.1 °F /  10.6 °C 30.03in /  1016.8hPa WNW 2.1mph /  3.4km/h 4mph /  6.4km/h 86% 0.00in /  0mm 0 W/m2
03:14 55.2 °F /  12.9 °C 51.1 °F /  10.6 °C 30.03in /  1016.8hPa WNW 2mph /  3.2km/h 4mph /  6.4km/h 86% 0.00in /  0mm 0 W/m2
03:19 55.2 °F /  12.9 °C 51.1 °F /  10.6 °C 30.03in /  1016.8hPa WNW 1.2mph /  1.9km/h 3mph /  4.8km/h 86% 0.00in /  0mm 0 W/m2
03:29 55.4 °F /  13 °C 51.3 °F /  10.7 °C 30.03in /  1016.8hPa WNW 0.8mph /  1.3km/h 3mph /  4.8km/h 86% 0.00in /  0mm 0 W/m2
03:34 55.3 °F /  12.9 °C 51.2 °F /  10.7 °C 30.03in /  1016.8hPa WNW 0.3mph /  0.5km/h 3mph /  4.8km/h 86% 0.00in /  0mm 0 W/m2
03:39 55.4 °F /  13 °C 51.3 °F /  10.7 °C 30.03in /  1016.8hPa Calm     86% 0.00in /  0mm 0 W/m2
03:44 55.4 °F /  13 °C 51.3 °F /  10.7 °C 30.03in /  1016.8hPa Calm     86% 0.00in /  0mm 0 W/m2
03:49 55.2 °F /  12.9 °C 51.1 °F /  10.6 °C 30.03in /  1016.8hPa Calm     86% 0.00in /  0mm 0 W/m2
03:54 55.1 °F /  12.8 °C 51 °F /  10.6 °C 30.03in /  1016.8hPa Calm     86% 0.00in /  0mm 0 W/m2
03:59 55 °F /  12.8 °C 51.1 °F /  10.6 °C 30.03in /  1016.8hPa Calm     86.6% 0.00in /  0mm 0 W/m2
04:04 54.9 °F /  12.7 °C 51.1 °F /  10.6 °C 30.03in /  1016.8hPa Calm   2mph /  3.2km/h 87% 0.00in /  0mm 0 W/m2
04:09 54.9 °F /  12.7 °C 51.1 °F /  10.6 °C 30.03in /  1016.8hPa WNW 1mph /  1.6km/h 3mph /  4.8km/h 87% 0.00in /  0mm 0 W/m2
04:14 54.9 °F /  12.7 °C 51.2 °F /  10.7 °C 30.03in /  1016.8hPa WNW 0.5mph /  0.8km/h 2mph /  3.2km/h 87% 0.00in /  0mm 0 W/m2
04:19 54.9 °F /  12.7 °C 51.2 °F /  10.7 °C 30.03in /  1016.8hPa WNW 0.2mph /  0.3km/h 2mph /  3.2km/h 87% 0.00in /  0mm 0 W/m2
04:24 55 °F /  12.8 °C 51.3 °F /  10.7 °C 30.03in /  1016.8hPa Calm   2mph /  3.2km/h 87% 0.00in /  0mm 0 W/m2
04:29 55 °F /  12.8 °C 51.3 °F /  10.7 °C 30.03in /  1016.8hPa WNW 0.6mph /  1km/h 3mph /  4.8km/h 87% 0.00in /  0mm 0 W/m2
04:34 55.1 °F /  12.8 °C 51.3 °F /  10.7 °C 30.03in /  1016.8hPa WNW 0.7mph /  1.1km/h 3mph /  4.8km/h 87% 0.00in /  0mm 0 W/m2
04:39 55.2 °F /  12.9 °C 51.4 °F /  10.8 °C 30.03in /  1016.8hPa Calm   3mph /  4.8km/h 87% 0.00in /  0mm 0 W/m2
04:44 55.2 °F /  12.9 °C 51.5 °F /  10.8 °C 30.03in /  1016.8hPa Calm     87.2% 0.00in /  0mm 0 W/m2
04:49 55.3 °F /  12.9 °C 51.5 °F /  10.8 °C 30.03in /  1016.8hPa WNW 0.4mph /  0.6km/h 3mph /  4.8km/h 87% 0.00in /  0mm 0 W/m2
04:54 55.4 °F /  13 °C 51.8 °F /  11 °C 30.03in /  1016.8hPa Calm     87.4% 0.00in /  0mm 0 W/m2
04:59 55.4 °F /  13 °C 51.8 °F /  11 °C 30.03in /  1016.8hPa Calm     87.6% 0.00in /  0mm 0 W/m2
05:04 55.4 °F /  13 °C 52 °F /  11.1 °C 30.02in /  1016.5hPa Calm     88% 0.00in /  0mm 0 W/m2
05:09 55.6 °F /  13.1 °C 52 °F /  11.1 °C 30.02in /  1016.5hPa Calm     87.6% 0.00in /  0mm 0 W/m2
05:14 55.4 °F /  13 °C 51.9 °F /  11.1 °C 30.03in /  1016.8hPa Calm     87.6% 0.00in /  0mm 0 W/m2
05:19 55.4 °F /  13 °C 51.9 °F /  11.1 °C 30.03in /  1016.8hPa Calm     87.8% 0.00in /  0mm 0 W/m2
05:24 55.4 °F /  13 °C 52 °F /  11.1 °C 30.03in /  1016.8hPa Calm     88% 0.00in /  0mm 0 W/m2
05:29 55.5 °F /  13.1 °C 52.1 °F /  11.2 °C 30.03in /  1016.8hPa Calm     88% 0.00in /  0mm 0 W/m2
05:34 55.6 °F /  13.1 °C 52.2 °F /  11.2 °C 30.03in /  1016.8hPa WNW 1.2mph /  1.9km/h 3mph /  4.8km/h 88% 0.00in /  0mm 0 W/m2
05:39 55.6 °F /  13.1 °C 52.2 °F /  11.2 °C 30.03in /  1016.8hPa Calm   2mph /  3.2km/h 88% 0.00in /  0mm 0 W/m2
05:44 55.6 °F /  13.1 °C 52.2 °F /  11.2 °C 30.03in /  1016.8hPa Calm   1mph /  1.6km/h 88% 0.00in /  0mm 7 W/m2
05:49 55.4 °F /  13 °C 52 °F /  11.1 °C 30.03in /  1016.8hPa WNW 0.2mph /  0.3km/h 2mph /  3.2km/h 88% 0.00in /  0mm 9 W/m2
05:54 55.3 °F /  12.9 °C 51.9 °F /  11.1 °C 30.03in /  1016.8hPa WNW 1mph /  1.6km/h 4mph /  6.4km/h 88% 0.00in /  0mm 12 W/m2
05:59 55.2 °F /  12.9 °C 51.8 °F /  11 °C 30.03in /  1016.8hPa Calm   2mph /  3.2km/h 88% 0.00in /  0mm 18 W/m2
06:04 55.2 °F /  12.9 °C 51.8 °F /  11 °C 30.03in /  1016.8hPa WNW 0.8mph /  1.3km/h 3mph /  4.8km/h 88% 0.00in /  0mm 19 W/m2
06:09 55.2 °F /  12.9 °C 51.8 °F /  11 °C 30.03in /  1016.8hPa WNW 0.8mph /  1.3km/h 4mph /  6.4km/h 88% 0.00in /  0mm 25 W/m2
06:14 55.2 °F /  12.9 °C 51.8 °F /  11 °C 30.03in /  1016.8hPa WNW 0.8mph /  1.3km/h 4mph /  6.4km/h 88% 0.00in /  0mm 32 W/m2
06:19 55.2 °F /  12.9 °C 51.8 °F /  11 °C 30.03in /  1016.8hPa WNW 1.5mph /  2.4km/h 5mph /  8km/h 88% 0.00in /  0mm 35 W/m2
06:24 55.2 °F /  12.9 °C 51.8 °F /  11 °C 30.03in /  1016.8hPa WNW 2.2mph /  3.5km/h 4mph /  6.4km/h 88% 0.00in /  0mm 30 W/m2
06:29 55.2 °F /  12.9 °C 51.9 °F /  11.1 °C 30.03in /  1016.8hPa WNW 2mph /  3.2km/h 4mph /  6.4km/h 88.6% 0.00in /  0mm 30 W/m2
06:34 55.2 °F /  12.9 °C 52 °F /  11.1 °C 30.03in /  1016.8hPa WNW 0.5mph /  0.8km/h 3mph /  4.8km/h 89% 0.00in /  0mm 28 W/m2
06:39 55.2 °F /  12.9 °C 52 °F /  11.1 °C 30.03in /  1016.8hPa WNW 1.3mph /  2.1km/h 4mph /  6.4km/h 89% 0.00in /  0mm 26 W/m2
06:44 55.2 °F /  12.9 °C 52 °F /  11.1 °C 30.03in /  1016.8hPa WNW 2mph /  3.2km/h 4mph /  6.4km/h 89% 0.00in /  0mm 28 W/m2
06:49 55.2 °F /  12.9 °C 52 °F /  11.1 °C 30.03in /  1016.8hPa West 1.7mph /  2.7km/h 6mph /  9.7km/h 89% 0.00in /  0mm 30 W/m2
06:54 55.2 °F /  12.9 °C 52 °F /  11.1 °C 30.03in /  1016.8hPa West 3.6mph /  5.8km/h 6mph /  9.7km/h 89% 0.00in /  0mm 35 W/m2
06:59 55.3 °F /  12.9 °C 52.1 °F /  11.2 °C 30.03in /  1016.8hPa WNW 1.7mph /  2.7km/h 5mph /  8km/h 89% 0.00in /  0mm 44 W/m2
07:04 55.6 °F /  13.1 °C 52.3 °F /  11.3 °C 30.03in /  1016.8hPa WNW 1.3mph /  2.1km/h 4mph /  6.4km/h 89% 0.00in /  0mm 60 W/m2
07:09 55.7 °F /  13.2 °C 52.4 °F /  11.3 °C 30.03in /  1016.8hPa West 1.8mph /  2.9km/h 5mph /  8km/h 89% 0.00in /  0mm 65 W/m2
07:14 55.9 °F /  13.3 °C 52.7 °F /  11.5 °C 30.03in /  1016.8hPa WSW 0.8mph /  1.3km/h 3mph /  4.8km/h 89% 0.00in /  0mm 84 W/m2
07:19 56 °F /  13.3 °C 52.8 °F /  11.6 °C 30.03in /  1016.8hPa WNW 0.4mph /  0.6km/h 5mph /  8km/h 89% 0.00in /  0mm 151 W/m2
07:24 56.4 °F /  13.6 °C 53.2 °F /  11.8 °C 30.04in /  1017.2hPa West 2.3mph /  3.7km/h 5mph /  8km/h 89% 0.00in /  0mm 148 W/m2
07:29 56.7 °F /  13.7 °C 53.2 °F /  11.8 °C 30.04in /  1017.2hPa West 0.8mph /  1.3km/h 3mph /  4.8km/h 88.2% 0.00in /  0mm 123 W/m2
07:34 56.8 °F /  13.8 °C 53.2 °F /  11.8 °C 30.04in /  1017.2hPa West 2mph /  3.2km/h 6mph /  9.7km/h 88% 0.00in /  0mm 137 W/m2
07:39 57.1 °F /  13.9 °C 53.5 °F /  11.9 °C 30.04in /  1017.2hPa WSW 1.5mph /  2.4km/h 6mph /  9.7km/h 88% 0.00in /  0mm 144 W/m2
07:44 57.3 °F /  14.1 °C 53.7 °F /  12.1 °C 30.04in /  1017.2hPa West 1.3mph /  2.1km/h 4mph /  6.4km/h 88% 0.00in /  0mm 209 W/m2
07:49 57.5 °F /  14.2 °C 53.8 °F /  12.1 °C 30.04in /  1017.2hPa Calm   2mph /  3.2km/h 87.4% 0.00in /  0mm 232 W/m2
07:54 57.7 °F /  14.3 °C 54 °F /  12.2 °C 30.04in /  1017.2hPa Calm     87% 0.00in /  0mm 176 W/m2
07:59 58.2 °F /  14.6 °C 54.4 °F /  12.4 °C 30.04in /  1017.2hPa West 3.3mph /  5.3km/h 7mph /  11.3km/h 87% 0.00in /  0mm 272 W/m2
08:04 58.2 °F /  14.6 °C 54.3 °F /  12.4 °C 30.04in /  1017.2hPa WNW 2.3mph /  3.7km/h 6mph /  9.7km/h 86.8% 0.00in /  0mm 352 W/m2
08:09 58.6 °F /  14.8 °C 54.4 °F /  12.4 °C 30.04in /  1017.2hPa WNW 2.7mph /  4.3km/h 7mph /  11.3km/h 86% 0.00in /  0mm 325 W/m2
08:14 58.6 °F /  14.8 °C 54.5 °F /  12.5 °C 30.04in /  1017.2hPa West 3.5mph /  5.6km/h 5mph /  8km/h 86% 0.00in /  0mm 232 W/m2
08:19 58.8 °F /  14.9 °C 54.5 °F /  12.5 °C 30.04in /  1017.2hPa West 2.9mph /  4.7km/h 5mph /  8km/h 85.6% 0.00in /  0mm 186 W/m2
08:24 59 °F /  15 °C 54.5 °F /  12.5 °C 30.04in /  1017.2hPa West 3mph /  4.8km/h 6mph /  9.7km/h 85% 0.00in /  0mm 304 W/m2
08:29 59.5 °F /  15.3 °C 54.8 °F /  12.7 °C 30.04in /  1017.2hPa West 3.6mph /  5.8km/h 9mph /  14.5km/h 84.2% 0.00in /  0mm 325 W/m2
08:34 60.1 °F /  15.6 °C 54.8 °F /  12.7 °C 30.04in /  1017.2hPa West 4.3mph /  6.9km/h 8mph /  12.9km/h 83% 0.00in /  0mm 353 W/m2
08:39 60.3 °F /  15.7 °C 54.7 °F /  12.6 °C 30.04in /  1017.2hPa West 4mph /  6.4km/h 8mph /  12.9km/h 81.8% 0.00in /  0mm 373 W/m2
08:44 60.5 °F /  15.8 °C 54.5 °F /  12.5 °C 30.04in /  1017.2hPa West 7.2mph /  11.6km/h 11mph /  17.7km/h 80.4% 0.00in /  0mm 403 W/m2
08:49 60.8 °F /  16 °C 54.7 °F /  12.6 °C 30.04in /  1017.2hPa WNW 4.6mph /  7.4km/h 10mph /  16.1km/h 80% 0.00in /  0mm 258 W/m2
08:54 61 °F /  16.1 °C 54.6 °F /  12.6 °C 30.04in /  1017.2hPa West 3mph /  4.8km/h 7mph /  11.3km/h 79.5% 0.00in /  0mm 162 W/m2
08:59 61.2 °F /  16.2 °C 54.7 °F /  12.6 °C 30.04in /  1017.2hPa West 6.8mph /  10.9km/h 10mph /  16.1km/h 79% 0.00in /  0mm 265 W/m2
09:04 61.2 °F /  16.2 °C 54.7 °F /  12.6 °C 30.04in /  1017.2hPa WSW 5.4mph /  8.7km/h 12mph /  19.3km/h 79% 0.00in /  0mm 227 W/m2
09:09 61 °F /  16.1 °C 54.6 °F /  12.6 °C 30.04in /  1017.2hPa West 5.3mph /  8.5km/h 13mph /  20.9km/h 79.6% 0.00in /  0mm 234 W/m2
09:14 61 °F /  16.1 °C 55 °F /  12.8 °C 30.04in /  1017.2hPa SW 5.7mph /  9.2km/h 10mph /  16.1km/h 81% 0.00in /  0mm 299 W/m2
09:19 60.6 °F /  15.9 °C 54.7 °F /  12.6 °C 30.05in /  1017.5hPa SW 6.3mph /  10.1km/h 11mph /  17.7km/h 81% 0.00in /  0mm 239 W/m2
09:24 60.4 °F /  15.8 °C 54.5 °F /  12.5 °C 30.05in /  1017.5hPa WSW 5.7mph /  9.2km/h 10mph /  16.1km/h 81% 0.00in /  0mm 287 W/m2
09:29 60.3 °F /  15.7 °C 54.3 °F /  12.4 °C 30.05in /  1017.5hPa WSW 5.2mph /  8.4km/h 10mph /  16.1km/h 81% 0.00in /  0mm 311 W/m2
09:34 60.1 °F /  15.6 °C 54.3 °F /  12.4 °C 30.05in /  1017.5hPa WSW 3.7mph /  6km/h 10mph /  16.1km/h 81.2% 0.00in /  0mm 234 W/m2
09:39 60.3 °F /  15.7 °C 54.6 °F /  12.6 °C 30.05in /  1017.5hPa SW 5.7mph /  9.2km/h 10mph /  16.1km/h 81.5% 0.00in /  0mm 397 W/m2
09:44 60.4 °F /  15.8 °C 54.5 °F /  12.5 °C 30.05in /  1017.5hPa WSW 6mph /  9.7km/h 10mph /  16.1km/h 81% 0.00in /  0mm 422 W/m2
09:49 60.8 °F /  16 °C 54.9 °F /  12.7 °C 30.05in /  1017.5hPa West 5.5mph /  8.9km/h 11mph /  17.7km/h 81% 0.00in /  0mm 327 W/m2
09:54 61.2 °F /  16.2 °C 54.9 °F /  12.7 °C 30.05in /  1017.5hPa WNW 8mph /  12.9km/h 11mph /  17.7km/h 79.4% 0.00in /  0mm 566 W/m2
09:59 61.7 °F /  16.5 °C 55 °F /  12.8 °C 30.05in /  1017.5hPa West 8.2mph /  13.2km/h 15mph /  24.1km/h 78.7% 0.00in /  0mm 872 W/m2
10:04 61.8 °F /  16.6 °C 54.6 °F /  12.6 °C 30.05in /  1017.5hPa West 12.2mph /  19.6km/h 17mph /  27.4km/h 77.2% 0.00in /  0mm 446 W/m2
10:09 61.2 °F /  16.2 °C 54.5 °F /  12.5 °C 30.05in /  1017.5hPa WNW 8.4mph /  13.5km/h 15mph /  24.1km/h 78.4% 0.00in /  0mm 346 W/m2
10:14 60.3 °F /  15.7 °C 54.5 °F /  12.5 °C 30.06in /  1017.8hPa WNW 4.7mph /  7.6km/h 11mph /  17.7km/h 81% 0.00in /  0mm 271 W/m2
10:19 60.1 °F /  15.6 °C 55 °F /  12.8 °C 30.06in /  1017.8hPa West 2.9mph /  4.7km/h 10mph /  16.1km/h 83.4% 0.00in /  0mm 260 W/m2
10:24 59.7 °F /  15.4 °C 55.1 °F /  12.8 °C 30.06in /  1017.8hPa West 3.7mph /  6km/h 8mph /  12.9km/h 84.6% 0.00in /  0mm 287 W/m2
10:29 59.4 °F /  15.2 °C 55 °F /  12.8 °C 30.05in /  1017.5hPa West 4.8mph /  7.7km/h 8mph /  12.9km/h 85.4% 0.00in /  0mm 297 W/m2
10:34 59.5 °F /  15.3 °C 55.3 °F /  12.9 °C 30.05in /  1017.5hPa WSW 3.3mph /  5.3km/h 7mph /  11.3km/h 86% 0.00in /  0mm 352 W/m2
10:39 59.9 °F /  15.5 °C 55.8 °F /  13.2 °C 30.05in /  1017.5hPa West 4mph /  6.4km/h 8mph /  12.9km/h 86.2% 0.00in /  0mm 346 W/m2
10:44 60 °F /  15.6 °C 55.7 °F /  13.2 °C 30.05in /  1017.5hPa SW 4.2mph /  6.8km/h 8mph /  12.9km/h 85.8% 0.00in /  0mm 346 W/m2
10:49 60.2 °F /  15.7 °C 55.7 °F /  13.2 °C 30.05in /  1017.5hPa West 3.5mph /  5.6km/h 6mph /  9.7km/h 85% 0.00in /  0mm 292 W/m2
10:54 60.8 °F /  16 °C 56 °F /  13.3 °C 30.05in /  1017.5hPa WSW 3mph /  4.8km/h 6mph /  9.7km/h 84.2% 0.00in /  0mm 392 W/m2
10:59 61.4 °F /  16.3 °C 56.1 °F /  13.4 °C 30.05in /  1017.5hPa WSW 2.7mph /  4.3km/h 8mph /  12.9km/h 82.6% 0.00in /  0mm 698 W/m2
11:04 61.8 °F /  16.6 °C 55.7 °F /  13.2 °C 30.05in /  1017.5hPa WSW 5.1mph /  8.2km/h 10mph /  16.1km/h 80.6% 0.00in /  0mm 731 W/m2
11:09 62.2 °F /  16.8 °C 55.9 °F /  13.3 °C 30.05in /  1017.5hPa West 3.4mph /  5.5km/h 8mph /  12.9km/h 80.3% 0.00in /  0mm 766 W/m2
11:14 62.6 °F /  17 °C 55.7 °F /  13.2 °C 30.04in /  1017.2hPa WNW 6.4mph /  10.3km/h 11mph /  17.7km/h 78.4% 0.00in /  0mm 789 W/m2
11:19 63.1 °F /  17.3 °C 55.8 °F /  13.2 °C 30.04in /  1017.2hPa West 5.4mph /  8.7km/h 11mph /  17.7km/h 77% 0.00in /  0mm 796 W/m2
11:24 63.3 °F /  17.4 °C 55.8 °F /  13.2 °C 30.04in /  1017.2hPa WNW 6.8mph /  10.9km/h 12mph /  19.3km/h 76.6% 0.00in /  0mm 838 W/m2
11:29 64 °F /  17.8 °C 56 °F /  13.3 °C 30.04in /  1017.2hPa West 5.6mph /  9km/h 12mph /  19.3km/h 75.2% 0.00in /  0mm 893 W/m2
11:34 64.7 °F /  18.2 °C 55.9 °F /  13.3 °C 30.04in /  1017.2hPa WNW 5.2mph /  8.4km/h 11mph /  17.7km/h 73% 0.00in /  0mm 824 W/m2
11:39 65.2 °F /  18.4 °C 55.2 °F /  12.9 °C 30.04in /  1017.2hPa West 8.6mph /  13.8km/h 14mph /  22.5km/h 70% 0.00in /  0mm 814 W/m2
11:44 64.9 °F /  18.3 °C 55.2 °F /  12.9 °C 30.04in /  1017.2hPa West 6.6mph /  10.6km/h 14mph /  22.5km/h 70.6% 0.00in /  0mm 814 W/m2
11:49 65.6 °F /  18.7 °C 55.4 °F /  13 °C 30.04in /  1017.2hPa WSW 5.3mph /  8.5km/h 11mph /  17.7km/h 69.4% 0.00in /  0mm 856 W/m2
11:54 65.9 °F /  18.8 °C 55.3 °F /  12.9 °C 30.04in /  1017.2hPa NW 5.7mph /  9.2km/h 12mph /  19.3km/h 68.3% 0.00in /  0mm 844 W/m2
11:59 66.1 °F /  18.9 °C 55.2 °F /  12.9 °C 30.04in /  1017.2hPa West 5.4mph /  8.7km/h 15mph /  24.1km/h 68% 0.00in /  0mm 902 W/m2
12:04 66.5 °F /  19.2 °C 55 °F /  12.8 °C 30.03in /  1016.8hPa WSW 9.6mph /  15.4km/h 17mph /  27.4km/h 66.4% 0.00in /  0mm 912 W/m2
12:09 66.4 °F /  19.1 °C 56.1 °F /  13.4 °C 30.03in /  1016.8hPa West 7.2mph /  11.6km/h 16mph /  25.7km/h 69.6% 0.00in /  0mm 853 W/m2
12:14 66.7 °F /  19.3 °C 56.6 °F /  13.7 °C 30.03in /  1016.8hPa West 7.6mph /  12.2km/h 13mph /  20.9km/h 70% 0.00in /  0mm 809 W/m2
12:19 66.7 °F /  19.3 °C 56.3 °F /  13.5 °C 30.03in /  1016.8hPa WSW 6.2mph /  10km/h 13mph /  20.9km/h 69% 0.00in /  0mm 838 W/m2
12:24 66.8 °F /  19.3 °C 56.3 °F /  13.5 °C 30.03in /  1016.8hPa SW 7mph /  11.3km/h 12mph /  19.3km/h 69% 0.00in /  0mm 900 W/m2
12:29 67.8 °F /  19.9 °C 57.4 °F /  14.1 °C 30.03in /  1016.8hPa WNW 6mph /  9.7km/h 11mph /  17.7km/h 69.4% 0.00in /  0mm 954 W/m2
12:34 67.8 °F /  19.9 °C 56.9 °F /  13.8 °C 30.02in /  1016.5hPa WNW 5.5mph /  8.9km/h 12mph /  19.3km/h 68.2% 0.00in /  0mm 954 W/m2
12:39 67.8 °F /  19.9 °C 56.4 °F /  13.6 °C 30.03in /  1016.8hPa WSW 10.2mph /  16.4km/h 13mph /  20.9km/h 66.6% 0.00in /  0mm 928 W/m2
12:44 67.7 °F /  19.8 °C 56.2 °F /  13.4 °C 30.03in /  1016.8hPa West 7.2mph /  11.6km/h 17mph /  27.4km/h 66.6% 0.00in /  0mm 983 W/m2
12:49 67.6 °F /  19.8 °C 56 °F /  13.3 °C 30.03in /  1016.8hPa WSW 9.8mph /  15.8km/h 17mph /  27.4km/h 66.2% 0.00in /  0mm 977 W/m2
12:54 68.6 °F /  20.3 °C 56.7 °F /  13.7 °C 30.02in /  1016.5hPa WSW 7.2mph /  11.6km/h 16mph /  25.7km/h 65.8% 0.00in /  0mm 933 W/m2
12:58 68.3 °F /  20.2 °C 56 °F /  13.3 °C 30.03in /  1016.8hPa West 4.7mph /  7.6km/h 17mph /  27.4km/h 65% 0.00in /  0mm 911 W/m2
13:04 68.2 °F /  20.1 °C 56 °F /  13.3 °C 30.03in /  1016.8hPa West 8mph /  12.9km/h 12mph /  19.3km/h 65.4% 0.00in /  0mm 967 W/m2
13:09 68.5 °F /  20.3 °C 56.3 °F /  13.5 °C 30.03in /  1016.8hPa West 9.1mph /  14.6km/h 14mph /  22.5km/h 65% 0.00in /  0mm 967 W/m2
13:14 68.5 °F /  20.3 °C 55.9 °F /  13.3 °C 30.03in /  1016.8hPa WSW 12mph /  19.3km/h 18mph /  29km/h 64.2% 0.00in /  0mm 1021 W/m2
13:19 68.2 °F /  20.1 °C 55.7 °F /  13.2 °C 30.03in /  1016.8hPa West 11.5mph /  18.5km/h 16mph /  25.7km/h 64.2% 0.00in /  0mm 1025 W/m2
13:24 68.2 °F /  20.1 °C 55.7 °F /  13.2 °C 30.03in /  1016.8hPa West 5.2mph /  8.4km/h 15mph /  24.1km/h 64.4% 0.00in /  0mm 895 W/m2
13:29 68.8 °F /  20.4 °C 56.2 °F /  13.4 °C 30.03in /  1016.8hPa WNW 6mph /  9.7km/h 13mph /  20.9km/h 64.2% 0.00in /  0mm 969 W/m2
13:34 69.2 °F /  20.7 °C 55 °F /  12.8 °C 30.03in /  1016.8hPa WSW 7.8mph /  12.6km/h 13mph /  20.9km/h 60.4% 0.00in /  0mm 953 W/m2
13:39 68.9 °F /  20.5 °C 54.4 °F /  12.4 °C 30.03in /  1016.8hPa WSW 8.4mph /  13.5km/h 18mph /  29km/h 60% 0.00in /  0mm 953 W/m2
13:44 68.9 °F /  20.5 °C 54.6 °F /  12.6 °C 30.03in /  1016.8hPa West 8.5mph /  13.7km/h 17mph /  27.4km/h 60.3% 0.00in /  0mm 615 W/m2
13:49 68.5 °F /  20.3 °C 54.9 °F /  12.7 °C 30.02in /  1016.5hPa West 10mph /  16.1km/h 16mph /  25.7km/h 61.8% 0.00in /  0mm 1034 W/m2
13:54 68.7 °F /  20.4 °C 54.8 °F /  12.7 °C 30.02in /  1016.5hPa WSW 8.6mph /  13.8km/h 16mph /  25.7km/h 61% 0.00in /  0mm 997 W/m2
13:59 68.2 °F /  20.1 °C 54.2 °F /  12.3 °C 30.02in /  1016.5hPa WSW 10.5mph /  16.9km/h 16mph /  25.7km/h 61% 0.00in /  0mm 942 W/m2
14:04 67.6 °F /  19.8 °C 54.3 °F /  12.4 °C 30.02in /  1016.5hPa WSW 5.6mph /  9km/h 12mph /  19.3km/h 62.4% 0.00in /  0mm 526 W/m2
14:09 67.6 °F /  19.8 °C 54.4 °F /  12.4 °C 30.02in /  1016.5hPa WSW 6.4mph /  10.3km/h 12mph /  19.3km/h 62.4% 0.00in /  0mm 613 W/m2
14:14 68.3 °F /  20.2 °C 54.8 °F /  12.7 °C 30.02in /  1016.5hPa WSW 7.2mph /  11.6km/h 15mph /  24.1km/h 62% 0.00in /  0mm 958 W/m2
14:19 69 °F /  20.6 °C 55 °F /  12.8 °C 30.02in /  1016.5hPa WSW 9.8mph /  15.8km/h 18mph /  29km/h 61% 0.00in /  0mm 904 W/m2
14:24 68.8 °F /  20.4 °C 54.1 °F /  12.3 °C 30.02in /  1016.5hPa WSW 8.4mph /  13.5km/h 15mph /  24.1km/h 59.6% 0.00in /  0mm 904 W/m2
14:29 69.1 °F /  20.6 °C 54.6 °F /  12.6 °C 30.02in /  1016.5hPa West 5.8mph /  9.3km/h 13mph /  20.9km/h 60% 0.00in /  0mm 784 W/m2
14:34 68.8 °F /  20.4 °C 54.8 °F /  12.7 °C 30.02in /  1016.5hPa West 8.7mph /  14km/h 17mph /  27.4km/h 61% 0.00in /  0mm 828 W/m2
14:39 68.9 °F /  20.5 °C 55 °F /  12.8 °C 30.02in /  1016.5hPa West 8.2mph /  13.2km/h 16mph /  25.7km/h 61.2% 0.00in /  0mm 879 W/m2
14:44 69.1 °F /  20.6 °C 54.8 °F /  12.7 °C 30.02in /  1016.5hPa WSW 8.6mph /  13.8km/h 15mph /  24.1km/h 60.2% 0.00in /  0mm 893 W/m2
14:49 69.7 °F /  20.9 °C 55.1 °F /  12.8 °C 30.02in /  1016.5hPa WSW 9.1mph /  14.6km/h 12mph /  19.3km/h 59.8% 0.00in /  0mm 900 W/m2
14:54 69.5 °F /  20.8 °C 54.7 °F /  12.6 °C 30.02in /  1016.5hPa WNW 9.1mph /  14.6km/h 15mph /  24.1km/h 59.4% 0.00in /  0mm 933 W/m2
14:59 69.2 °F /  20.7 °C 54.5 °F /  12.5 °C 30.02in /  1016.5hPa NW 5.3mph /  8.5km/h 15mph /  24.1km/h 59.6% 0.00in /  0mm 933 W/m2
15:04 69.5 °F /  20.8 °C 55 °F /  12.8 °C 30.02in /  1016.5hPa West 9.2mph /  14.8km/h 14mph /  22.5km/h 60.2% 0.00in /  0mm 942 W/m2
15:09 69.3 °F /  20.7 °C 54.9 °F /  12.7 °C 30.01in /  1016.1hPa West 6.8mph /  10.9km/h 14mph /  22.5km/h 60% 0.00in /  0mm 947 W/m2
15:13 68.6 °F /  20.3 °C 54.2 °F /  12.3 °C 30.01in /  1016.1hPa West 7mph /  11.3km/h 15mph /  24.1km/h 60% 0.00in /  0mm 942 W/m2
15:19 68.1 °F /  20.1 °C 53.6 °F /  12 °C 30.01in /  1016.1hPa West 6.9mph /  11.1km/h 14mph /  22.5km/h 60% 0.00in /  0mm 838 W/m2
15:24 68.1 °F /  20.1 °C 53.6 °F /  12 °C 30.01in /  1016.1hPa WNW 8.2mph /  13.2km/h 16mph /  25.7km/h 60% 0.00in /  0mm 828 W/m2
15:29 69 °F /  20.6 °C 54.7 °F /  12.6 °C 30.01in /  1016.1hPa WSW 6.3mph /  10.1km/h 14mph /  22.5km/h 60.2% 0.00in /  0mm 812 W/m2
15:34 69.3 °F /  20.7 °C 54.3 °F /  12.4 °C 30.01in /  1016.1hPa West 7.8mph /  12.6km/h 16mph /  25.7km/h 59% 0.00in /  0mm 807 W/m2
15:39 69.1 °F /  20.6 °C 54.7 °F /  12.6 °C 30.01in /  1016.1hPa West 8mph /  12.9km/h 13mph /  20.9km/h 60% 0.00in /  0mm 856 W/m2
15:44 69.3 °F /  20.7 °C 55 °F /  12.8 °C 30.01in /  1016.1hPa West 7.6mph /  12.2km/h 15mph /  24.1km/h 60.2% 0.00in /  0mm 810 W/m2
15:49 69.2 °F /  20.7 °C 54.9 °F /  12.7 °C 30.01in /  1016.1hPa West 5mph /  8km/h 13mph /  20.9km/h 60.4% 0.00in /  0mm 810 W/m2
15:54 69.5 °F /  20.8 °C 55.4 °F /  13 °C 30.01in /  1016.1hPa WNW 7.9mph /  12.7km/h 12mph /  19.3km/h 60.8% 0.00in /  0mm 780 W/m2
15:59 69 °F /  20.6 °C 54.9 °F /  12.7 °C 30.01in /  1016.1hPa WSW 7.8mph /  12.6km/h 14mph /  22.5km/h 60.8% 0.00in /  0mm 722 W/m2
16:04 68.8 °F /  20.4 °C 55 °F /  12.8 °C 30.01in /  1016.1hPa West 6.3mph /  10.1km/h 12mph /  19.3km/h 61.4% 0.00in /  0mm 809 W/m2
16:09 69.1 °F /  20.6 °C 55.3 °F /  12.9 °C 30.01in /  1016.1hPa West 9mph /  14.5km/h 17mph /  27.4km/h 61.6% 0.00in /  0mm 800 W/m2
16:14 68.7 °F /  20.4 °C 55.5 °F /  13.1 °C 30.01in /  1016.1hPa West 8.2mph /  13.2km/h 14mph /  22.5km/h 62.8% 0.00in /  0mm 784 W/m2
16:19 69.1 °F /  20.6 °C 55.8 °F /  13.2 °C 30.00in /  1015.8hPa WNW 7.3mph /  11.7km/h 14mph /  22.5km/h 62.4% 0.00in /  0mm 770 W/m2
16:23 69.4 °F /  20.8 °C 56.1 °F /  13.4 °C 30.00in /  1015.8hPa West 9mph /  14.5km/h 14mph /  22.5km/h 62.5% 0.00in /  0mm 765 W/m2
16:29 69.4 °F /  20.8 °C 56 °F /  13.3 °C 30.00in /  1015.8hPa West 5.3mph /  8.5km/h 13mph /  20.9km/h 62.4% 0.00in /  0mm 715 W/m2
16:34 69.9 °F /  21.1 °C 56.4 °F /  13.6 °C 30.00in /  1015.8hPa WNW 6.2mph /  10km/h 13mph /  20.9km/h 62.4% 0.00in /  0mm 691 W/m2
16:39 69.2 °F /  20.7 °C 55.9 °F /  13.3 °C 30.00in /  1015.8hPa NW 7mph /  11.3km/h 13mph /  20.9km/h 62.8% 0.00in /  0mm 290 W/m2
16:44 68.6 °F /  20.3 °C 55.9 °F /  13.3 °C 30.00in /  1015.8hPa WNW 3.3mph /  5.3km/h 11mph /  17.7km/h 63.8% 0.00in /  0mm 754 W/m2
16:49 68.8 °F /  20.4 °C 56.2 °F /  13.4 °C 30.00in /  1015.8hPa NW 5.5mph /  8.9km/h 15mph /  24.1km/h 64% 0.00in /  0mm 754 W/m2
16:54 68.3 °F /  20.2 °C 55.8 °F /  13.2 °C 30.00in /  1015.8hPa WNW 4.3mph /  6.9km/h 11mph /  17.7km/h 64.2% 0.00in /  0mm 582 W/m2
16:59 68.3 °F /  20.2 °C 55.8 °F /  13.2 °C 30.00in /  1015.8hPa WNW 4.4mph /  7.1km/h 10mph /  16.1km/h 64.2% 0.00in /  0mm 452 W/m2
17:04 67.9 °F /  19.9 °C 55.4 °F /  13 °C 30.00in /  1015.8hPa WNW 7.8mph /  12.6km/h 11mph /  17.7km/h 64.2% 0.00in /  0mm 517 W/m2
17:09 68.1 °F /  20.1 °C 55.9 °F /  13.3 °C 30.00in /  1015.8hPa NW 3.9mph /  6.3km/h 10mph /  16.1km/h 65% 0.00in /  0mm 617 W/m2
17:14 68.7 °F /  20.4 °C 55.8 °F /  13.2 °C 30.00in /  1015.8hPa WNW 5.9mph /  9.5km/h 11mph /  17.7km/h 63.6% 0.00in /  0mm 543 W/m2
17:19 68.8 °F /  20.4 °C 55.5 °F /  13.1 °C 30.00in /  1015.8hPa WNW 6.7mph /  10.8km/h 13mph /  20.9km/h 62.6% 0.00in /  0mm 436 W/m2
17:24 68.2 °F /  20.1 °C 54.9 °F /  12.7 °C 30.00in /  1015.8hPa NW 6mph /  9.7km/h 12mph /  19.3km/h 62.6% 0.00in /  0mm 454 W/m2
17:29 67.7 °F /  19.8 °C 54.6 °F /  12.6 °C 30.00in /  1015.8hPa NW 7mph /  11.3km/h 11mph /  17.7km/h 62.8% 0.00in /  0mm 499 W/m2
17:34 67.8 °F /  19.9 °C 54.3 °F /  12.4 °C 30.00in /  1015.8hPa WNW 7.2mph /  11.6km/h 13mph /  20.9km/h 62% 0.00in /  0mm 466 W/m2
17:39 67.2 °F /  19.6 °C 54 °F /  12.2 °C 30.00in /  1015.8hPa West 7.7mph /  12.4km/h 13mph /  20.9km/h 62.6% 0.00in /  0mm 169 W/m2
17:44 66.7 °F /  19.3 °C 54 °F /  12.2 °C 30.00in /  1015.8hPa WNW 6.5mph /  10.5km/h 15mph /  24.1km/h 63.4% 0.00in /  0mm 155 W/m2
17:49 66.7 °F /  19.3 °C 54.1 °F /  12.3 °C 30.00in /  1015.8hPa West 7.9mph /  12.7km/h 13mph /  20.9km/h 64% 0.00in /  0mm 144 W/m2
17:59 66.4 °F /  19.1 °C 53.8 °F /  12.1 °C 30.00in /  1015.8hPa WNW 7.5mph /  12.1km/h 13mph /  20.9km/h 64% 0.00in /  0mm 98 W/m2
18:04 66.3 °F /  19.1 °C 53.7 °F /  12.1 °C 30.00in /  1015.8hPa WNW 7.8mph /  12.6km/h 10mph /  16.1km/h 64% 0.00in /  0mm 90 W/m2
18:09 65.9 °F /  18.8 °C 53.4 °F /  11.9 °C 30.00in /  1015.8hPa WNW 6.4mph /  10.3km/h 13mph /  20.9km/h 64.2% 0.00in /  0mm 111 W/m2
18:14 65.8 °F /  18.8 °C 53.8 °F /  12.1 °C 30.00in /  1015.8hPa WNW 5.2mph /  8.4km/h 11mph /  17.7km/h 65% 0.00in /  0mm 139 W/m2
18:19 65.7 °F /  18.7 °C 53.7 °F /  12.1 °C 30.00in /  1015.8hPa WNW 5.1mph /  8.2km/h 13mph /  20.9km/h 65% 0.00in /  0mm 204 W/m2
18:24 65.5 °F /  18.6 °C 53.4 °F /  11.9 °C 30.00in /  1015.8hPa WNW 7.8mph /  12.6km/h 16mph /  25.7km/h 65% 0.00in /  0mm 181 W/m2
18:29 65.3 °F /  18.5 °C 53.5 °F /  11.9 °C 30.00in /  1015.8hPa WNW 8.8mph /  14.2km/h 16mph /  25.7km/h 65.8% 0.00in /  0mm 190 W/m2
18:34 65 °F /  18.3 °C 53.3 °F /  11.8 °C 30.00in /  1015.8hPa WNW 9.6mph /  15.4km/h 16mph /  25.7km/h 66% 0.00in /  0mm 216 W/m2
18:39 64.9 °F /  18.3 °C 53.2 °F /  11.8 °C 30.00in /  1015.8hPa WNW 5.7mph /  9.2km/h 15mph /  24.1km/h 66% 0.00in /  0mm 181 W/m2
18:44 64.8 °F /  18.2 °C 52.9 °F /  11.6 °C 30.00in /  1015.8hPa West 8.8mph /  14.2km/h 13mph /  20.9km/h 65.4% 0.00in /  0mm 160 W/m2
18:49 64.8 °F /  18.2 °C 52.6 °F /  11.4 °C 30.00in /  1015.8hPa West 5.1mph /  8.2km/h 11mph /  17.7km/h 64.8% 0.00in /  0mm 141 W/m2
18:54 64.6 °F /  18.1 °C 52.4 °F /  11.3 °C 30.00in /  1015.8hPa NW 6.6mph /  10.6km/h 12mph /  19.3km/h 64.6% 0.00in /  0mm 113 W/m2
18:59 64.1 °F /  17.8 °C 51.7 °F /  10.9 °C 30.00in /  1015.8hPa WNW 8mph /  12.9km/h 13mph /  20.9km/h 64% 0.00in /  0mm 102 W/m2
19:04 63.9 °F /  17.7 °C 51.8 °F /  11 °C 30.00in /  1015.8hPa WNW 5.3mph /  8.5km/h 11mph /  17.7km/h 64.8% 0.00in /  0mm 97 W/m2
19:09 63.7 °F /  17.6 °C 51.9 °F /  11.1 °C 30.00in /  1015.8hPa WNW 7.2mph /  11.6km/h 14mph /  22.5km/h 65.4% 0.00in /  0mm 90 W/m2
19:14 63.5 °F /  17.5 °C 52 °F /  11.1 °C 30.00in /  1015.8hPa West 7.6mph /  12.2km/h 11mph /  17.7km/h 66.2% 0.00in /  0mm 84 W/m2
19:19 63.2 °F /  17.3 °C 52.1 °F /  11.2 °C 30.00in /  1015.8hPa WNW 5.6mph /  9km/h 13mph /  20.9km/h 67% 0.00in /  0mm 79 W/m2
19:24 63.1 °F /  17.3 °C 52.2 °F /  11.2 °C 30.00in /  1015.8hPa West 4.7mph /  7.6km/h 9mph /  14.5km/h 67.8% 0.00in /  0mm 69 W/m2
19:29 63.1 °F /  17.3 °C 52.3 °F /  11.3 °C 30.00in /  1015.8hPa West 3.6mph /  5.8km/h 9mph /  14.5km/h 68% 0.00in /  0mm 67 W/m2
19:34 63 °F /  17.2 °C 52.2 °F /  11.2 °C 30.00in /  1015.8hPa West 3.9mph /  6.3km/h 8mph /  12.9km/h 68% 0.00in /  0mm 67 W/m2
19:39 62.8 °F /  17.1 °C 52.1 °F /  11.2 °C 30.00in /  1015.8hPa West 6mph /  9.7km/h 13mph /  20.9km/h 68% 0.00in /  0mm 63 W/m2
19:44 62.4 °F /  16.9 °C 52.2 °F /  11.2 °C 30.00in /  1015.8hPa WNW 5.4mph /  8.7km/h 11mph /  17.7km/h 69% 0.00in /  0mm 54 W/m2
19:49 62.2 °F /  16.8 °C 51.9 °F /  11.1 °C 30.00in /  1015.8hPa WNW 6.8mph /  10.9km/h 13mph /  20.9km/h 69% 0.00in /  0mm 47 W/m2
19:54 62.1 °F /  16.7 °C 52 °F /  11.1 °C 30.00in /  1015.8hPa WNW 2.9mph /  4.7km/h 11mph /  17.7km/h 69.6% 0.00in /  0mm 40 W/m2
19:59 62 °F /  16.7 °C 52.1 °F /  11.2 °C 30.00in /  1015.8hPa WNW 6mph /  9.7km/h 13mph /  20.9km/h 70% 0.00in /  0mm 37 W/m2
20:04 61.9 °F /  16.6 °C 52.3 °F /  11.3 °C 30.00in /  1015.8hPa WNW 3.5mph /  5.6km/h 5mph /  8km/h 71% 0.00in /  0mm 33 W/m2
20:09 61.9 °F /  16.6 °C 52.4 °F /  11.3 °C 30.00in /  1015.8hPa West 3.1mph /  5km/h 5mph /  8km/h 71.2% 0.00in /  0mm 33 W/m2
20:13 61.8 °F /  16.6 °C 52.6 °F /  11.4 °C 30.00in /  1015.8hPa West 4.5mph /  7.2km/h 7mph /  11.3km/h 72% 0.00in /  0mm 33 W/m2
20:19 61.5 °F /  16.4 °C 52.4 °F /  11.3 °C 30.00in /  1015.8hPa West 3.7mph /  6km/h 7mph /  11.3km/h 72.2% 0.00in /  0mm 28 W/m2
20:24 61.5 °F /  16.4 °C 52.8 °F /  11.6 °C 30.00in /  1015.8hPa West 5.6mph /  9km/h 10mph /  16.1km/h 73.2% 0.00in /  0mm 19 W/m2
20:29 61.3 °F /  16.3 °C 53 °F /  11.7 °C 30.00in /  1015.8hPa WSW 6mph /  9.7km/h 10mph /  16.1km/h 74% 0.00in /  0mm 14 W/m2
20:34 61.2 °F /  16.2 °C 53.1 °F /  11.7 °C 30.00in /  1015.8hPa West 3.5mph /  5.6km/h 8mph /  12.9km/h 74.6% 0.00in /  0mm 12 W/m2
20:39 61 °F /  16.1 °C 53.1 °F /  11.7 °C 30.00in /  1015.8hPa West 4.7mph /  7.6km/h 6mph /  9.7km/h 75% 0.00in /  0mm 9 W/m2
20:44 60.9 °F /  16.1 °C 53 °F /  11.7 °C 30.01in /  1016.1hPa West 3.6mph /  5.8km/h 6mph /  9.7km/h 75% 0.00in /  0mm 7 W/m2
20:49 60.6 °F /  15.9 °C 52.7 °F /  11.5 °C 30.01in /  1016.1hPa West 4.9mph /  7.9km/h 8mph /  12.9km/h 75% 0.00in /  0mm 5 W/m2
20:54 60.4 °F /  15.8 °C 52.5 °F /  11.4 °C 30.01in /  1016.1hPa WSW 4.9mph /  7.9km/h 9mph /  14.5km/h 75% 0.00in /  0mm 0 W/m2
20:59 60.3 °F /  15.7 °C 52.3 °F /  11.3 °C 30.01in /  1016.1hPa West 4.4mph /  7.1km/h 9mph /  14.5km/h 75% 0.00in /  0mm 0 W/m2
21:04 60.2 °F /  15.7 °C 52.3 °F /  11.3 °C 30.01in /  1016.1hPa West 4.7mph /  7.6km/h 8mph /  12.9km/h 75% 0.00in /  0mm 0 W/m2
21:09 59.9 °F /  15.5 °C 52.2 °F /  11.2 °C 30.01in /  1016.1hPa West 4.2mph /  6.8km/h 8mph /  12.9km/h 75.6% 0.00in /  0mm 0 W/m2
21:14 59.8 °F /  15.4 °C 52.2 °F /  11.2 °C 30.01in /  1016.1hPa West 2.4mph /  3.9km/h 6mph /  9.7km/h 76% 0.00in /  0mm 0 W/m2
21:19 59.6 °F /  15.3 °C 51.9 °F /  11.1 °C 30.01in /  1016.1hPa West 3.7mph /  6km/h 7mph /  11.3km/h 75.4% 0.00in /  0mm 0 W/m2
21:24 59.5 °F /  15.3 °C 51.9 °F /  11.1 °C 30.01in /  1016.1hPa WNW 3.7mph /  6km/h 8mph /  12.9km/h 76% 0.00in /  0mm 0 W/m2
21:29 59.4 °F /  15.2 °C 51.8 °F /  11 °C 30.01in /  1016.1hPa WNW 2.6mph /  4.2km/h 6mph /  9.7km/h 76% 0.00in /  0mm 0 W/m2
21:34 59.2 °F /  15.1 °C 51.6 °F /  10.9 °C 30.01in /  1016.1hPa WNW 2.9mph /  4.7km/h 5mph /  8km/h 76% 0.00in /  0mm 0 W/m2
21:39 59.1 °F /  15.1 °C 51.5 °F /  10.8 °C 30.01in /  1016.1hPa WNW 3.1mph /  5km/h 5mph /  8km/h 76% 0.00in /  0mm 0 W/m2
21:44 58.8 °F /  14.9 °C 51.3 °F /  10.7 °C 30.02in /  1016.5hPa West 4.3mph /  6.9km/h 9mph /  14.5km/h 76% 0.00in /  0mm 0 W/m2
21:49 58.6 °F /  14.8 °C 51.1 °F /  10.6 °C 30.02in /  1016.5hPa WNW 3.6mph /  5.8km/h 7mph /  11.3km/h 76% 0.00in /  0mm 0 W/m2
21:54 58.6 °F /  14.8 °C 51.1 °F /  10.6 °C 30.02in /  1016.5hPa WNW 4.4mph /  7.1km/h 7mph /  11.3km/h 76% 0.00in /  0mm 0 W/m2
21:59 58.4 °F /  14.7 °C 50.8 °F /  10.4 °C 30.01in /  1016.1hPa WNW 3.7mph /  6km/h 7mph /  11.3km/h 76% 0.00in /  0mm 0 W/m2
22:04 58.2 °F /  14.6 °C 50.9 °F /  10.5 °C 30.01in /  1016.1hPa WNW 2.5mph /  4km/h 5mph /  8km/h 76.8% 0.00in /  0mm 0 W/m2
22:09 57.9 °F /  14.4 °C 50.7 °F /  10.4 °C 30.02in /  1016.5hPa WNW 2.5mph /  4km/h 5mph /  8km/h 77% 0.00in /  0mm 0 W/m2
22:14 57.8 °F /  14.3 °C 50.8 °F /  10.4 °C 30.02in /  1016.5hPa West 2.5mph /  4km/h 5mph /  8km/h 77.4% 0.00in /  0mm 0 W/m2
22:19 57.7 °F /  14.3 °C 50.9 °F /  10.5 °C 30.02in /  1016.5hPa West 2.4mph /  3.9km/h 5mph /  8km/h 78% 0.00in /  0mm 0 W/m2
22:24 57.6 °F /  14.2 °C 50.8 °F /  10.4 °C 30.02in /  1016.5hPa WNW 1.7mph /  2.7km/h 5mph /  8km/h 78% 0.00in /  0mm 0 W/m2
22:28 57.6 °F /  14.2 °C 51 °F /  10.6 °C 30.02in /  1016.5hPa West 1.7mph /  2.7km/h 4mph /  6.4km/h 78.8% 0.00in /  0mm 0 W/m2
22:34 57.5 °F /  14.2 °C 51 °F /  10.6 °C 30.02in /  1016.5hPa West 2.9mph /  4.7km/h 5mph /  8km/h 79% 0.00in /  0mm 0 W/m2
22:39 57.3 °F /  14.1 °C 51.1 °F /  10.6 °C 30.01in /  1016.1hPa West 2.5mph /  4km/h 5mph /  8km/h 79.6% 0.00in /  0mm 0 W/m2
22:44 57.1 °F /  13.9 °C 51 °F /  10.6 °C 30.02in /  1016.5hPa West 2.9mph /  4.7km/h 6mph /  9.7km/h 80% 0.00in /  0mm 0 W/m2
22:49 57 °F /  13.9 °C 50.9 °F /  10.5 °C 30.02in /  1016.5hPa West 2.6mph /  4.2km/h 5mph /  8km/h 80% 0.00in /  0mm 0 W/m2
22:54 56.9 °F /  13.8 °C 51.2 °F /  10.7 °C 30.02in /  1016.5hPa WNW 2.8mph /  4.5km/h 5mph /  8km/h 81% 0.00in /  0mm 0 W/m2
22:59 56.8 °F /  13.8 °C 51.2 °F /  10.7 °C 30.01in /  1016.1hPa WNW 3.2mph /  5.1km/h 6mph /  9.7km/h 81.2% 0.00in /  0mm 0 W/m2
23:04 56.7 °F /  13.7 °C 51.3 °F /  10.7 °C 30.01in /  1016.1hPa WNW 3.1mph /  5km/h 7mph /  11.3km/h 82% 0.00in /  0mm 0 W/m2
23:09 56.7 °F /  13.7 °C 51.3 °F /  10.7 °C 30.01in /  1016.1hPa WNW 3.6mph /  5.8km/h 6mph /  9.7km/h 82% 0.00in /  0mm 0 W/m2
23:14 56.5 °F /  13.6 °C 51.3 °F /  10.7 °C 30.01in /  1016.1hPa WNW 3.3mph /  5.3km/h 8mph /  12.9km/h 82.8% 0.00in /  0mm 0 W/m2
23:19 56.5 °F /  13.6 °C 51.4 °F /  10.8 °C 30.01in /  1016.1hPa WNW 4.1mph /  6.6km/h 8mph /  12.9km/h 83% 0.00in /  0mm 0 W/m2
23:24 56.4 °F /  13.6 °C 51.3 °F /  10.7 °C 30.01in /  1016.1hPa WNW 3.3mph /  5.3km/h 5mph /  8km/h 83% 0.00in /  0mm 0 W/m2
23:29 56.2 °F /  13.4 °C 51.4 °F /  10.8 °C 30.01in /  1016.1hPa WNW 2.6mph /  4.2km/h 7mph /  11.3km/h 83.8% 0.00in /  0mm 0 W/m2
23:34 56.1 °F /  13.4 °C 51.4 °F /  10.8 °C 30.01in /  1016.1hPa WNW 1.2mph /  1.9km/h 7mph /  11.3km/h 84% 0.00in /  0mm 0 W/m2
23:39 56.1 °F /  13.4 °C 51.5 °F /  10.8 °C 30.01in /  1016.1hPa WNW 1mph /  1.6km/h 4mph /  6.4km/h 84.5% 0.00in /  0mm 0 W/m2
23:44 56 °F /  13.3 °C 51.5 °F /  10.8 °C 30.01in /  1016.1hPa Calm     85% 0.00in /  0mm 0 W/m2
23:49 55.9 °F /  13.3 °C 51.4 °F /  10.8 °C 30.01in /  1016.1hPa Calm     85% 0.00in /  0mm 0 W/m2
23:54 55.9 °F /  13.3 °C 51.4 °F /  10.8 °C 30.01in /  1016.1hPa Calm   2mph /  3.2km/h 85% 0.00in /  0mm 0 W/m2
23:59 55.8 °F /  13.2 °C 51.3 °F /  10.7 °C 30.01in /  1016.1hPa Calm     85% 0.00in /  0mm 0 W/m2
Bath Spa Weather
Compliments of Weather Underground - 2 mb